Koeln, Germany

10:33 PM CEST on August 04, 2015 (GMT +0200)
near Airport Cologne/Bonn | | Change Station
CLOSE
Current Station
Personal Weather Station
Location: Köln, NORDRHEIN-WESTFALEN
Elevation: 180 ft
Nearby Weather Stations

Elev 180 ft 50.88 °N, 7.10 °E | Updated 1 minute ago

Scattered Clouds
Scattered Clouds
60.8 °F
Feels Like 60.8 °F
N
1.0
Wind Variable Wind from ESE
Gusts 3.0 mph

Today
High -- | Low -- °F
--% Chance of Precip.
Yesterday
High -- | Low -- °F
Precip. -- in
6:01 AM 9:12 PM
Waning Gibbous, 74% visible
Pressure 30.06 in
Visibility 6.2 miles
Clouds Few 3500 ft
Scattered Clouds 27000 ft
Dew Point 56 °F
Humidity 84%
Rainfall 0.24 in
Snow Depth Not available.
UV 0.0 out of 12
Pollen Not available.
Air Quality Not available.
Flu Activity Not available.
METAR EDDK 042020Z 13005KT 9999 FEW035 SCT270 15/14 Q1018 NOSIG

More Conditions Fewer Conditions

Pressure 30.06 in
Visibility 6.2 miles
Clouds Few 3500 ft
Scattered Clouds 27000 ft
Dew Point 56 °F
Humidity 84%
Rainfall 0.24 in
Snow Depth Not available.
UV 0.0 out of 12
Pollen Not available.
Air Quality Not available.
Flu Activity Not available.
METAR EDDK 042020Z 13005KT 9999 FEW035 SCT270 15/14 Q1018 NOSIG

More Conditions Fewer Conditions

10-Day Weather Forecast

×

Almanac

Astronomy

Aug. 04, 2015 Rise Set
Actual Time
Civil Twilight
Nautical Twilight
Astronomical Twilight
Moon
Length of Visible Light
Length of Day
Tomorrow will be .
, % of the Moon is Illuminated

Today's Extremes

Country Highs Country Lows

Community

WunderPhotos

Upload Photos

1,843,971 photos uploaded!

WunderBlogs® & News

Nearby

Air Quality

  Air Quality AQ Index Pollutant
Not available.

Snow Depth

Station Depth Elevation

Earthquake Activity

City Distance Mag. Time & Date
Minimum magnitude displayed is 2.5.

Coastal Water Temperatures

Place Temperature

Stations

Nearby Weather Stations

Station Location Temp. Windchill Dew Point Humidity Wind Precip. Elev Updated Type